Time;durP1;ratioP1;P1;durP2;ratioP2;P2;SDS_P1;SDS_P2;PMS_P1;PMS_P2;Temp;Humidity;BMP_temperature;BMP_pressure;BME280_temperature;BME280_humidity;BME280_pressure;Samples;Min_cycle;Max_cycle;Signal;HPM_P1;HPM_P2
2023/04/17 00:03:32;;;;;;;;;;;;;;;5.00;44.32;102034.78;10525598;28;19920;-88
2023/04/17 00:08:34;;;;;;;;;;;;;;;4.87;44.33;102032.06;10492318;28;19920;-87
2023/04/17 00:13:36;;;;;;;;;;;;;;;4.97;44.54;102037.06;10491014;28;19920;-87
2023/04/17 00:18:38;;;;;;;;;;;;;;;5.01;44.46;102030.16;10484762;28;19931;-88
2023/04/17 00:23:40;;;;;;;;;;;;;;;4.95;45.57;102026.41;10519216;28;20387;-89
2023/04/17 00:28:42;;;;;;;;;;;;;;;4.93;45.05;102024.94;10486611;28;19919;-87
2023/04/17 00:33:45;;;;;;;;;;;;;;;4.74;45.30;102029.34;10479041;28;19921;-86
2023/04/17 00:38:47;;;;;;;;;;;;;;;4.75;45.69;102031.03;10502594;28;19939;-87
2023/04/17 00:43:49;;;;;;;;;;;;;;;4.67;45.86;102018.44;10510845;28;19924;-89
2023/04/17 00:48:52;;;;;;;;;;;;;;;4.58;46.09;102029.75;10512737;28;20311;-87
2023/04/17 00:53:54;;;;;;;;;;;;;;;4.61;46.43;102029.31;10500355;28;19920;-89
2023/04/17 00:58:56;;;;;;;;;;;;;;;4.79;46.34;102034.97;10535063;28;19916;-89
2023/04/17 01:04:00;;;;;;;;;;;;;;;4.79;46.42;102040.44;10517459;28;19927;-88
2023/04/17 01:09:02;;;;;;;;;;;;;;;4.55;47.26;102041.88;10500003;28;19916;-88
2023/04/17 01:14:04;;;;;;;;;;;;;;;4.62;46.93;102040.00;10519356;28;20308;-87
2023/04/17 01:19:07;;;;;;;;;;;;;;;4.48;47.19;102047.28;10458039;28;19920;-87
2023/04/17 01:24:10;;;;;;;;;;;;;;;4.35;47.75;102039.13;10480766;28;19920;-88
2023/04/17 01:29:11;;;;;;;;;;;;;;;4.28;47.83;102034.69;10532538;28;19921;-89
2023/04/17 01:34:13;;;;;;;;;;;;;;;4.25;48.15;102035.97;10504437;28;19927;-88
2023/04/17 01:39:16;;;;;;;;;;;;;;;4.20;47.80;102039.28;10513434;28;20001;-88
2023/04/17 01:44:18;;;;;;;;;;;;;;;4.06;48.13;102036.75;10479442;28;19927;-88
2023/04/17 01:49:20;;;;;;;;;;;;;;;4.02;48.15;102033.59;10498419;28;19927;-89
2023/04/17 01:54:23;;;;;;;;;;;;;;;3.93;48.02;102030.22;10515391;28;19923;-88
2023/04/17 01:59:26;;;;;;;;;;;;;;;3.77;48.52;102040.59;10497506;28;19920;-89
2023/04/17 02:04:29;;;;;;;;;;;;;;;3.67;48.80;102038.25;10498092;28;19920;-89
2023/04/17 02:09:31;;;;;;;;;;;;;;;3.68;49.00;102029.06;10514025;28;19916;-88
2023/04/17 02:14:33;;;;;;;;;;;;;;;3.84;48.76;102027.88;10491164;28;20311;-89
2023/04/17 02:19:35;;;;;;;;;;;;;;;3.71;48.31;102027.81;10497026;28;20006;-88
2023/04/17 02:24:38;;;;;;;;;;;;;;;3.70;48.73;102029.69;10513384;28;19916;-88
2023/04/17 02:29:43;;;;;;;;;;;;;;;3.90;48.74;102030.63;10513670;28;19928;-88
2023/04/17 02:34:55;;;;;;;;;;;;;;;;;;;;;
2023/04/17 02:40:24;;;;;;;;;;;;;;;3.87;49.08;102036.47;10514416;28;19921;-88
2023/04/17 02:45:43;;;;;;;;;;;;;;;3.72;49.17;102035.75;10487790;28;20399;-87
2023/04/17 02:57:14;;;;;;;;;;;;;;;3.68;48.66;102041.81;10524758;28;19974;-86
2023/04/17 03:02:23;;;;;;;;;;;;;;;3.90;48.32;102046.91;10496956;28;19924;-89
2023/04/17 03:07:26;;;;;;;;;;;;;;;4.10;48.27;102046.97;10512320;28;20376;-87
2023/04/17 03:12:28;;;;;;;;;;;;;;;4.36;48.42;102051.66;10473751;28;20376;-87
2023/04/17 03:17:30;;;;;;;;;;;;;;;4.38;48.40;102052.31;10486488;28;20010;-88
2023/04/17 03:22:32;;;;;;;;;;;;;;;4.72;47.89;102048.59;10508113;28;20384;-87
2023/04/17 03:27:35;;;;;;;;;;;;;;;5.22;46.89;102050.88;10510998;28;19957;-88
2023/04/17 03:32:37;;;;;;;;;;;;;;;5.58;46.48;102056.69;10511564;28;19920;-89
2023/04/17 03:37:39;;;;;;;;;;;;;;;5.89;45.04;102060.53;10500099;28;19956;-88
2023/04/17 03:42:41;;;;;;;;;;;;;;;5.81;44.55;102055.34;10475995;28;20299;-87
2023/04/17 03:47:46;;;;;;;;;;;;;;;6.12;44.81;102058.19;10476861;28;19920;-88
2023/04/17 03:52:49;;;;;;;;;;;;;;;6.64;42.75;102061.66;10530606;28;19920;-88
2023/04/17 03:57:51;;;;;;;;;;;;;;;6.51;42.93;102067.19;10520717;28;19920;-89
2023/04/17 04:02:54;;;;;;;;;;;;;;;6.75;41.58;102066.41;10510799;28;19920;-87
2023/04/17 04:08:04;;;;;;;;;;;;;;;7.15;40.68;102058.75;10475521;28;19921;-90
2023/04/17 04:13:13;;;;;;;;;;;;;;;7.03;40.42;102067.88;10478131;28;19920;-88
2023/04/17 04:18:17;;;;;;;;;;;;;;;7.11;40.80;102070.31;10510575;28;19916;-88
2023/04/17 04:23:20;;;;;;;;;;;;;;;7.66;38.97;102074.00;10494986;28;19920;-91
2023/04/17 04:28:23;;;;;;;;;;;;;;;7.82;38.79;102076.13;10502111;28;19920;-87
2023/04/17 04:33:26;;;;;;;;;;;;;;;7.79;38.20;102078.47;10492318;28;19920;-88
2023/04/17 04:38:32;;;;;;;;;;;;;;;8.04;38.24;102083.88;10486194;28;19950;-87
2023/04/17 04:44:06;;;;;;;;;;;;;;;8.46;37.71;102080.16;10444332;28;19964;-87
2023/04/17 04:49:11;;;;;;;;;;;;;;;8.72;38.07;102092.66;10467324;28;19923;-86
2023/04/17 04:54:14;;;;;;;;;;;;;;;9.05;37.30;102092.13;10422756;28;20316;-88
2023/04/17 04:59:27;;;;;;;;;;;;;;;8.52;37.51;102092.09;10466969;28;19920;-87
2023/04/17 05:05:09;;;;;;;;;;;;;;;8.59;37.32;102092.00;10466866;28;19917;-89
2023/04/17 05:10:15;;;;;;;;;;;;;;;8.77;37.03;102098.25;10449595;28;19920;-88
2023/04/17 05:15:49;;;;;;;;;;;;;;;10.06;35.07;102094.69;10463901;28;19922;-86
2023/04/17 05:20:54;;;;;;;;;;;;;;;9.97;35.54;102097.00;10458725;28;19916;-89
2023/04/17 05:25:58;;;;;;;;;;;;;;;10.20;34.00;102096.94;10474394;28;19916;-88
2023/04/17 05:31:00;;;;;;;;;;;;;;;10.87;33.41;102088.09;10445584;28;19925;-87
2023/04/17 05:36:08;;;;;;;;;;;;;;;11.29;33.06;102101.44;10425453;28;19924;-89
2023/04/17 05:41:14;;;;;;;;;;;;;;;11.35;33.18;102103.19;10476123;28;19920;-87
2023/04/17 05:46:19;;;;;;;;;;;;;;;11.95;32.41;102106.00;10495956;28;19920;-87
2023/04/17 05:51:21;;;;;;;;;;;;;;;12.21;31.57;102107.19;10507355;28;19925;-86
2023/04/17 05:56:24;;;;;;;;;;;;;;;12.24;31.71;102105.84;10504326;28;20801;-89
2023/04/17 06:01:28;;;;;;;;;;;;;;;11.58;32.39;102108.47;10505697;28;19916;-87
2023/04/17 06:06:38;;;;;;;;;;;;;;;12.15;31.97;102097.22;10526845;28;19924;-90
2023/04/17 06:12:24;;;;;;;;;;;;;;;;;;;;;
2023/04/17 06:17:30;;;;;;;;;;;;;;;12.48;31.60;102109.16;10508458;28;19926;-90
2023/04/17 06:22:32;;;;;;;;;;;;;;;12.16;31.92;102100.81;10519618;28;19916;-88
2023/04/17 06:27:34;;;;;;;;;;;;;;;12.81;30.71;102108.13;10504415;28;20471;-89
2023/04/17 06:32:45;;;;;;;;;;;;;;;13.18;30.56;102111.81;10536656;28;20351;-88
2023/04/17 06:37:47;;;;;;;;;;;;;;;11.65;31.97;102122.91;10526951;28;20292;-88
2023/04/17 06:42:50;;;;;;;;;;;;;;;11.92;31.97;102127.72;10511713;28;19924;-87
2023/04/17 06:47:59;;;;;;;;;;;;;;;12.73;31.85;102131.47;10532836;28;19916;-87
2023/04/17 06:59:29;;;;;;;;;;;;;;;14.82;28.39;102121.81;10550254;28;20007;-90
2023/04/17 07:04:31;;;;;;;;;;;;;;;14.40;28.29;102120.81;10516650;28;19955;-94
2023/04/17 07:09:33;;;;;;;;;;;;;;;14.42;28.58;102126.09;10512360;28;19988;-92
2023/04/17 07:14:35;;;;;;;;;;;;;;;14.48;28.66;102130.56;10485723;28;19920;-92
2023/04/17 07:26:16;;;;;;;;;;;;;;;16.07;26.61;102133.13;10530325;28;19916;-89
2023/04/17 07:31:20;;;;;;;;;;;;;;;15.98;26.11;102141.19;10478581;28;19920;-90
2023/04/17 07:36:23;;;;;;;;;;;;;;;17.12;24.97;102141.19;10524561;28;19923;-88
2023/04/17 07:41:25;;;;;;;;;;;;;;;16.43;25.76;102144.88;10512645;28;19928;-89
2023/04/17 07:46:27;;;;;;;;;;;;;;;17.01;25.11;102152.63;10511379;28;19927;-87
2023/04/17 07:51:30;;;;;;;;;;;;;;;16.51;24.79;102149.03;10513575;28;19946;-86
2023/04/17 07:56:35;;;;;;;;;;;;;;;16.85;24.23;102149.16;10548974;28;19916;-85
2023/04/17 08:01:41;;;;;;;;;;;;;;;15.81;25.47;102153.69;10495244;28;19920;-86
2023/04/17 08:06:43;;;;;;;;;;;;;;;16.10;24.82;102149.16;10503042;28;19923;-86
2023/04/17 08:11:45;;;;;;;;;;;;;;;16.26;23.74;102155.47;10526254;28;19988;-86
2023/04/17 08:16:48;;;;;;;;;;;;;;;16.24;24.35;102155.75;10516988;28;19920;-83
2023/04/17 08:21:58;;;;;;;;;;;;;;;17.00;23.54;102157.34;10496961;28;19916;-83
2023/04/17 08:27:00;;;;;;;;;;;;;;;17.10;23.79;102154.50;10510395;28;19920;-83
2023/04/17 08:32:02;;;;;;;;;;;;;;;16.38;24.03;102155.16;10519975;28;19966;-85
2023/04/17 08:37:07;;;;;;;;;;;;;;;16.55;23.62;102163.97;10480407;28;20332;-85
2023/04/17 08:42:09;;;;;;;;;;;;;;;16.70;23.44;102163.09;10539787;28;20409;-87
2023/04/17 08:47:16;;;;;;;;;;;;;;;17.10;23.32;102156.47;10493860;28;19916;-88
2023/04/17 08:52:18;;;;;;;;;;;;;;;17.98;22.25;102156.25;10535468;28;19921;-87
2023/04/17 08:58:16;;;;;;;;;;;;;;;18.34;21.97;102164.19;10499837;28;19916;-89
2023/04/17 09:03:12;;;;;;;;;;;;;;;16.95;22.19;102170.44;10467409;28;19917;-88
2023/04/17 09:08:15;;;;;;;;;;;;;;;16.62;22.70;102171.97;10513515;28;19916;-88
2023/04/17 09:13:18;;;;;;;;;;;;;;;16.33;22.78;102167.09;10469429;28;19986;-89
2023/04/17 09:18:27;;;;;;;;;;;;;;;16.36;23.35;102168.47;10519353;28;20327;-86
2023/04/17 09:23:30;;;;;;;;;;;;;;;15.35;24.13;102164.72;10503030;28;19917;-86
2023/04/17 09:28:34;;;;;;;;;;;;;;;13.90;25.47;102171.13;10508588;28;19920;-87
2023/04/17 09:33:38;;;;;;;;;;;;;;;13.84;25.49;102166.66;10494842;28;19926;-88
2023/04/17 09:38:40;;;;;;;;;;;;;;;13.88;25.33;102173.28;10487204;28;19927;-86
2023/04/17 09:43:42;;;;;;;;;;;;;;;13.89;25.20;102174.97;10499980;28;20431;-85
2023/04/17 09:48:44;;;;;;;;;;;;;;;13.58;25.73;102169.22;10525105;28;19991;-85
2023/04/17 09:53:48;;;;;;;;;;;;;;;13.32;25.58;102161.00;10520169;28;19919;-85
2023/04/17 09:58:50;;;;;;;;;;;;;;;13.10;25.73;102172.91;10531457;28;20304;-86
2023/04/17 10:03:52;;;;;;;;;;;;;;;13.11;26.55;102171.81;10518850;28;19924;-85
2023/04/17 10:08:54;;;;;;;;;;;;;;;12.98;26.76;102175.81;10539691;28;19984;-86
2023/04/17 10:14:05;;;;;;;;;;;;;;;13.16;25.57;102166.34;10561909;28;19979;-85
2023/04/17 10:19:29;;;;;;;;;;;;;;;12.99;26.25;102160.94;10545820;28;20280;-85
2023/04/17 10:24:32;;;;;;;;;;;;;;;12.96;25.83;102152.38;10536846;28;19924;-86
2023/04/17 10:29:53;;;;;;;;;;;;;;;13.15;26.31;102144.56;10537844;28;19919;-86
2023/04/17 10:35:03;;;;;;;;;;;;;;;13.16;26.54;102146.22;10553761;28;19924;-85
2023/04/17 10:40:07;;;;;;;;;;;;;;;13.42;26.14;102148.13;10536759;28;19927;-85
2023/04/17 10:51:45;;;;;;;;;;;;;;;13.06;26.09;102158.00;10492902;28;19920;-84
2023/04/17 10:56:47;;;;;;;;;;;;;;;12.95;26.46;102157.03;10470065;28;19916;-86
2023/04/17 11:15:35;;;;;;;;;;;;;;;13.33;27.38;102162.66;10329054;28;19925;-84
2023/04/17 11:20:38;;;;;;;;;;;;;;;13.31;28.00;102162.94;10469385;28;19917;-86
2023/04/17 11:25:40;;;;;;;;;;;;;;;13.33;28.72;102171.75;10485929;28;19916;-86
2023/04/17 11:30:43;;;;;;;;;;;;;;;13.29;28.56;102165.13;10469850;28;20028;-85
2023/04/17 11:35:46;;;;;;;;;;;;;;;13.28;28.71;102166.22;10469682;28;20402;-86
2023/04/17 11:40:52;;;;;;;;;;;;;;;13.30;28.33;102172.28;10510015;28;20288;-86
2023/04/17 11:45:55;;;;;;;;;;;;;;;13.29;27.93;102170.63;10528199;28;19916;-85
2023/04/17 11:51:08;;;;;;;;;;;;;;;13.24;27.81;102173.34;10475291;28;19920;-85
2023/04/17 11:56:28;;;;;;;;;;;;;;;13.29;27.32;102173.38;10499528;28;20292;-85
2023/04/17 12:01:33;;;;;;;;;;;;;;;13.14;27.56;102165.78;10492246;28;19924;-85
2023/04/17 12:06:35;;;;;;;;;;;;;;;13.03;27.52;102172.28;10554102;28;19923;-85
2023/04/17 12:11:37;;;;;;;;;;;;;;;13.07;27.50;102170.69;10523182;28;19920;-85
2023/04/17 12:16:40;;;;;;;;;;;;;;;13.06;26.94;102181.97;10509066;28;19926;-86
2023/04/17 12:21:43;;;;;;;;;;;;;;;12.95;27.91;102181.84;10509293;28;19928;-85
2023/04/17 12:26:59;;;;;;;;;;;;;;;13.02;26.91;102178.91;10475982;28;19952;-85
2023/04/17 12:32:00;;;;;;;;;;;;;;;13.14;26.96;102178.72;10480897;28;19921;-88
2023/04/17 12:37:02;;;;;;;;;;;;;;;13.05;26.78;102183.06;10509497;28;19955;-85
2023/04/17 12:42:08;;;;;;;;;;;;;;;12.99;27.41;102180.22;10476631;28;20379;-86
2023/04/17 12:47:10;;;;;;;;;;;;;;;13.05;27.04;102183.88;10514294;28;19916;-86
2023/04/17 12:52:13;;;;;;;;;;;;;;;13.11;27.09;102176.50;10516430;28;19926;-87
2023/04/17 12:57:24;;;;;;;;;;;;;;;13.03;26.67;102176.97;10495627;28;19920;-88
2023/04/17 13:02:43;;;;;;;;;;;;;;;13.03;27.63;102171.47;10498085;28;19927;-87
2023/04/17 13:07:45;;;;;;;;;;;;;;;12.86;27.75;102177.06;10499710;28;19979;-85
2023/04/17 13:13:12;;;;;;;;;;;;;;;12.86;27.38;102175.16;10505744;28;19920;-86
2023/04/17 13:18:14;;;;;;;;;;;;;;;12.94;27.29;102171.09;10494063;28;19934;-86
2023/04/17 13:23:16;;;;;;;;;;;;;;;13.02;27.57;102165.13;10501716;28;19934;-85
2023/04/17 13:28:17;;;;;;;;;;;;;;;12.89;27.17;102168.28;10474350;28;19932;-84
2023/04/17 13:33:19;;;;;;;;;;;;;;;12.73;27.61;102172.78;10440355;28;20276;-85
2023/04/17 13:38:21;;;;;;;;;;;;;;;12.66;27.64;102170.22;10456111;28;19917;-85
2023/04/17 13:43:23;;;;;;;;;;;;;;;12.59;29.04;102168.75;10456505;28;19924;-84
2023/04/17 13:48:25;;;;;;;;;;;;;;;12.67;28.24;102173.84;10462398;28;19920;-85
2023/04/17 13:53:27;;;;;;;;;;;;;;;12.60;27.74;102179.53;10498099;28;20384;-86
2023/04/17 13:58:29;;;;;;;;;;;;;;;12.42;28.11;102170.75;10509091;28;22444;-86
2023/04/17 14:03:31;;;;;;;;;;;;;;;12.52;28.97;102181.91;10514415;28;19920;-85
2023/04/17 14:08:33;;;;;;;;;;;;;;;12.64;28.27;102179.81;10512754;28;19925;-85
2023/04/17 14:13:35;;;;;;;;;;;;;;;12.51;28.07;102189.34;10503400;28;19927;-85
2023/04/17 14:18:37;;;;;;;;;;;;;;;12.43;28.49;102186.19;10503632;28;19916;-82
2023/04/17 14:23:39;;;;;;;;;;;;;;;12.30;28.33;102187.38;10493632;28;19988;-85
2023/04/17 14:28:41;;;;;;;;;;;;;;;11.99;29.08;102191.66;10501333;28;20490;-85
2023/04/17 14:34:10;;;;;;;;;;;;;;;11.73;29.38;102185.72;10509551;28;19920;-83
2023/04/17 14:39:12;;;;;;;;;;;;;;;11.57;29.08;102194.78;10486103;28;19938;-83
2023/04/17 14:44:14;;;;;;;;;;;;;;;11.38;29.68;102196.13;10495866;28;20011;-83
2023/04/17 14:49:16;;;;;;;;;;;;;;;11.18;29.86;102191.94;10476483;28;20301;-83
2023/04/17 14:54:18;;;;;;;;;;;;;;;11.27;30.43;102191.53;10494528;28;19927;-82
2023/04/17 14:59:20;;;;;;;;;;;;;;;11.35;30.59;102196.63;10509801;28;19916;-80
2023/04/17 15:04:49;;;;;;;;;;;;;;;11.37;30.00;102209.03;10492344;28;20334;-84
2023/04/17 15:09:51;;;;;;;;;;;;;;;11.32;30.94;102194.38;10497096;28;19916;-82
2023/04/17 15:14:55;;;;;;;;;;;;;;;11.19;30.35;102203.75;10526668;28;20011;-78
2023/04/17 15:19:59;;;;;;;;;;;;;;;11.03;30.26;102201.81;10520483;28;19921;-79
2023/04/17 15:25:01;;;;;;;;;;;;;;;10.91;31.11;102201.84;10514833;28;19920;-79
2023/04/17 15:30:05;;;;;;;;;;;;;;;10.94;30.99;102206.88;10505663;28;19969;-80
2023/04/17 15:35:07;;;;;;;;;;;;;;;11.04;31.02;102214.47;10509172;28;20318;-80
2023/04/17 15:40:10;;;;;;;;;;;;;;;10.95;31.98;102214.03;10518648;28;19920;-79
2023/04/17 15:45:11;;;;;;;;;;;;;;;10.97;32.06;102216.53;10557702;28;19920;-80
2023/04/17 15:50:14;;;;;;;;;;;;;;;10.93;31.88;102218.09;10538954;28;19987;-79
2023/04/17 15:55:16;;;;;;;;;;;;;;;11.06;31.56;102221.38;10495370;28;19923;-82
2023/04/17 16:00:18;;;;;;;;;;;;;;;11.15;32.53;102219.91;10526293;28;20303;-81
2023/04/17 16:05:20;;;;;;;;;;;;;;;11.14;32.18;102212.75;10510958;28;19927;-82
2023/04/17 16:10:23;;;;;;;;;;;;;;;11.01;32.26;102218.53;10470121;28;20621;-82
2023/04/17 16:15:28;;;;;;;;;;;;;;;10.97;32.26;102217.38;10470782;28;19921;-80
2023/04/17 16:20:30;;;;;;;;;;;;;;;10.92;32.91;102219.16;10497622;28;19916;-82
2023/04/17 16:25:32;;;;;;;;;;;;;;;10.82;33.39;102228.88;10498520;28;19943;-80
2023/04/17 16:30:34;;;;;;;;;;;;;;;10.74;33.37;102228.41;10508981;28;19925;-80
2023/04/17 16:35:36;;;;;;;;;;;;;;;10.78;32.33;102232.38;10480746;28;19943;-80
2023/04/17 16:40:38;;;;;;;;;;;;;;;10.56;32.62;102241.25;10509500;28;19924;-83
2023/04/17 16:45:40;;;;;;;;;;;;;;;10.45;32.85;102242.13;10497379;28;19925;-85
2023/04/17 16:50:42;;;;;;;;;;;;;;;10.33;31.85;102255.00;10486520;28;20158;-82
2023/04/17 16:55:44;;;;;;;;;;;;;;;9.96;29.96;102255.22;10484190;28;19926;-81
2023/04/17 17:00:46;;;;;;;;;;;;;;;9.76;29.74;102257.47;10498371;28;19924;-81
2023/04/17 17:05:48;;;;;;;;;;;;;;;9.70;29.62;102255.66;10503632;28;19916;-82
2023/04/17 17:11:21;;;;;;;;;;;;;;;9.59;29.48;102259.22;10456277;28;19916;-82
2023/04/17 17:16:23;;;;;;;;;;;;;;;9.42;29.61;102266.44;10491538;28;19924;-82
2023/04/17 17:21:26;;;;;;;;;;;;;;;9.22;29.62;102264.84;10506212;28;19916;-82
2023/04/17 17:26:28;;;;;;;;;;;;;;;9.20;29.57;102277.94;10490200;28;19924;-83
2023/04/17 17:31:31;;;;;;;;;;;;;;;9.16;29.87;102284.06;10477139;28;19924;-81
2023/04/17 17:36:33;;;;;;;;;;;;;;;9.03;29.70;102282.38;10496137;28;19927;-87
2023/04/17 17:41:41;;;;;;;;;;;;;;;9.05;30.80;102280.25;10504613;28;20406;-84
2023/04/17 17:46:43;;;;;;;;;;;;;;;8.96;30.82;102278.88;10518531;28;19920;-83
2023/04/17 17:51:45;;;;;;;;;;;;;;;8.88;30.26;102276.47;10495660;28;19922;-81
2023/04/17 17:56:48;;;;;;;;;;;;;;;8.86;30.63;102276.69;10498080;28;19916;-84
2023/04/17 18:01:50;;;;;;;;;;;;;;;8.90;30.83;102280.63;10489631;28;19916;-79
2023/04/17 18:06:51;;;;;;;;;;;;;;;8.82;30.73;102285.56;10548871;28;19965;-78
2023/04/17 18:11:53;;;;;;;;;;;;;;;8.81;30.98;102284.75;10516729;28;19982;-81
2023/04/17 18:16:55;;;;;;;;;;;;;;;8.77;30.84;102280.78;10530363;28;19926;-80
2023/04/17 18:21:57;;;;;;;;;;;;;;;8.68;31.78;102283.00;10516033;28;20428;-80
2023/04/17 18:27:01;;;;;;;;;;;;;;;8.49;30.98;102283.22;10493973;28;19920;-81
2023/04/17 18:32:03;;;;;;;;;;;;;;;8.41;31.37;102281.63;10501487;28;19920;-82
2023/04/17 18:37:05;;;;;;;;;;;;;;;8.56;31.50;102286.72;10465975;28;20375;-83
2023/04/17 18:42:07;;;;;;;;;;;;;;;8.56;31.58;102284.81;10495220;28;19998;-83
2023/04/17 18:47:10;;;;;;;;;;;;;;;8.51;32.10;102281.94;10496437;28;20505;-83
2023/04/17 18:52:14;;;;;;;;;;;;;;;8.65;31.50;102283.44;10441924;28;20437;-81
2023/04/17 18:57:16;;;;;;;;;;;;;;;8.79;31.27;102286.03;10522897;28;20284;-80
2023/04/17 19:02:18;;;;;;;;;;;;;;;8.79;30.93;102278.66;10520666;28;19920;-79
2023/04/17 19:07:20;;;;;;;;;;;;;;;8.82;31.48;102285.56;10497673;28;19925;-84
2023/04/17 19:12:25;;;;;;;;;;;;;;;8.77;31.22;102289.84;10477630;28;19924;-80
2023/04/17 19:17:27;;;;;;;;;;;;;;;8.77;31.39;102289.00;10493354;28;20018;-80
2023/04/17 19:22:28;;;;;;;;;;;;;;;8.69;30.99;102284.69;10513824;28;19946;-81
2023/04/17 19:27:30;;;;;;;;;;;;;;;8.67;31.52;102286.78;10494608;28;19920;-80
2023/04/17 19:32:32;;;;;;;;;;;;;;;8.71;31.94;102285.28;10507544;28;19923;-80
2023/04/17 19:37:34;;;;;;;;;;;;;;;8.74;31.87;102284.81;10514370;28;19928;-80
2023/04/17 19:42:36;;;;;;;;;;;;;;;8.75;31.50;102281.03;10501068;28;20018;-80
2023/04/17 19:47:39;;;;;;;;;;;;;;;8.75;31.92;102285.66;10493050;28;19926;-80
2023/04/17 19:52:42;;;;;;;;;;;;;;;8.76;31.93;102287.34;10514837;28;19919;-79
2023/04/17 19:57:43;;;;;;;;;;;;;;;8.68;32.82;102280.28;10527805;28;19927;-78
2023/04/17 20:02:50;;;;;;;;;;;;;;;8.80;32.88;102272.13;10566773;28;20444;-80
2023/04/17 20:07:52;;;;;;;;;;;;;;;8.81;33.38;102282.00;10509427;28;20303;-81
2023/04/17 20:12:54;;;;;;;;;;;;;;;8.78;33.52;102279.72;10527538;28;19927;-80
2023/04/17 20:17:56;;;;;;;;;;;;;;;8.80;33.53;102279.50;10504805;28;19927;-81
2023/04/17 20:22:58;;;;;;;;;;;;;;;8.74;34.28;102284.81;10526730;28;19920;-80
2023/04/17 20:28:03;;;;;;;;;;;;;;;8.76;34.02;102277.22;10520572;28;19924;-79
2023/04/17 20:33:06;;;;;;;;;;;;;;;8.62;33.76;102289.38;10488734;28;20461;-78
2023/04/17 20:38:10;;;;;;;;;;;;;;;8.42;33.41;102284.13;10531196;28;19923;-80
2023/04/17 20:43:12;;;;;;;;;;;;;;;8.42;34.09;102286.03;10505949;28;19934;-82
2023/04/17 20:48:14;;;;;;;;;;;;;;;8.27;33.76;102285.53;10526049;28;19931;-79
2023/04/17 20:53:16;;;;;;;;;;;;;;;8.08;33.44;102293.69;10484024;28;19954;-80
2023/04/17 20:58:18;;;;;;;;;;;;;;;7.78;34.13;102306.34;10499165;28;19923;-80
2023/04/17 21:03:20;;;;;;;;;;;;;;;7.74;35.11;102299.66;10485768;28;19920;-79
2023/04/17 21:08:22;;;;;;;;;;;;;;;7.77;35.12;102297.31;10495091;28;19920;-79
2023/04/17 21:13:25;;;;;;;;;;;;;;;7.79;35.34;102302.53;10515265;28;19920;-79
2023/04/17 21:18:27;;;;;;;;;;;;;;;7.74;34.61;102302.38;10497249;28;19920;-79
2023/04/17 21:23:29;;;;;;;;;;;;;;;7.57;35.30;102310.28;10514839;28;19920;-79
2023/04/17 21:28:30;;;;;;;;;;;;;;;7.51;35.32;102305.69;10511463;28;20380;-79
2023/04/17 21:33:32;;;;;;;;;;;;;;;7.57;34.98;102307.53;10506512;28;19919;-79
2023/04/17 21:38:34;;;;;;;;;;;;;;;7.53;35.22;102309.03;10539028;28;19963;-80
2023/04/17 21:50:15;;;;;;;;;;;;;;;7.26;35.44;102313.81;10493117;28;19920;-78
2023/04/17 21:55:17;;;;;;;;;;;;;;;6.78;35.86;102316.16;10507638;28;19924;-78
2023/04/17 22:00:19;;;;;;;;;;;;;;;6.78;36.09;102311.53;10521877;28;19943;-78
2023/04/17 22:05:21;;;;;;;;;;;;;;;6.71;36.77;102310.69;10471781;28;20376;-79
2023/04/17 22:10:23;;;;;;;;;;;;;;;6.60;37.65;102311.38;10556091;28;19916;-79
2023/04/17 22:15:26;;;;;;;;;;;;;;;6.38;37.42;102313.50;10494391;28;19946;-78
2023/04/17 22:20:28;;;;;;;;;;;;;;;6.25;38.46;102306.19;10510781;28;19966;-78
2023/04/17 22:25:30;;;;;;;;;;;;;;;6.23;38.12;102308.25;10516094;28;20019;-79
2023/04/17 22:30:32;;;;;;;;;;;;;;;6.28;37.78;102302.19;10483837;28;19920;-79
2023/04/17 22:35:34;;;;;;;;;;;;;;;6.40;37.99;102303.22;10511578;28;19921;-79
2023/04/17 22:40:36;;;;;;;;;;;;;;;6.44;37.70;102301.75;10472618;28;19971;-79
2023/04/17 22:45:38;;;;;;;;;;;;;;;6.42;37.73;102294.81;10532001;28;19921;-79
2023/04/17 22:50:40;;;;;;;;;;;;;;;6.31;37.84;102294.44;10523993;28;19927;-77
2023/04/17 22:55:42;;;;;;;;;;;;;;;6.26;38.05;102305.16;10500115;28;20303;-78
2023/04/17 23:00:44;;;;;;;;;;;;;;;6.20;38.63;102297.78;10518046;28;19985;-78
2023/04/17 23:05:46;;;;;;;;;;;;;;;6.09;38.58;102305.78;10528574;28;20414;-77
2023/04/17 23:10:58;;;;;;;;;;;;;;;6.03;38.27;102297.38;10510329;28;19920;-80
2023/04/17 23:16:00;;;;;;;;;;;;;;;5.95;38.57;102297.63;10538207;28;20311;-78
2023/04/17 23:21:25;;;;;;;;;;;;;;;5.73;38.73;102294.22;10534626;28;19942;-78
2023/04/17 23:26:27;;;;;;;;;;;;;;;5.72;38.27;102297.97;10528279;28;20015;-79
2023/04/17 23:31:29;;;;;;;;;;;;;;;5.75;38.45;102289.41;10509491;28;19920;-79
2023/04/17 23:36:33;;;;;;;;;;;;;;;5.88;38.18;102288.56;10492322;28;20303;-79
2023/04/17 23:41:35;;;;;;;;;;;;;;;6.01;38.19;102287.75;10533186;28;19920;-79
2023/04/17 23:46:37;;;;;;;;;;;;;;;6.05;38.08;102272.66;10547087;28;19934;-79
2023/04/17 23:51:39;;;;;;;;;;;;;;;6.00;37.94;102281.47;10501649;28;20383;-79
2023/04/17 23:56:42;;;;;;;;;;;;;;;6.04;38.13;102277.25;10567014;28;20298;-78
